sensor_id;sensor_type;location;lat;lon;timestamp;temperature;humidity
680;DHT22;322;48.846;9.230;2024-01-15T00:00:37;-1.30;99.90
680;DHT22;322;48.846;9.230;2024-01-15T00:03:05;-1.40;99.90
680;DHT22;322;48.846;9.230;2024-01-15T00:05:34;-1.60;99.90
680;DHT22;322;48.846;9.230;2024-01-15T00:08:03;-1.80;99.90
680;DHT22;322;48.846;9.230;2024-01-15T00:10:31;-1.90;99.90
680;DHT22;322;48.846;9.230;2024-01-15T00:12:59;-1.80;99.90
680;DHT22;322;48.846;9.230;2024-01-15T00:15:27;-1.90;99.90
680;DHT22;322;48.846;9.230;2024-01-15T00:17:57;-1.90;99.90
680;DHT22;322;48.846;9.230;2024-01-15T00:20:25;-2.10;99.90
680;DHT22;322;48.846;9.230;2024-01-15T00:22:57;-2.10;99.90
680;DHT22;322;48.846;9.230;2024-01-15T00:25:25;-2.10;99.90
680;DHT22;322;48.846;9.230;2024-01-15T00:27:53;-2.20;99.90
680;DHT22;322;48.846;9.230;2024-01-15T00:30:21;-2.20;99.90
680;DHT22;322;48.846;9.230;2024-01-15T00:32:49;-2.20;99.90
680;DHT22;322;48.846;9.230;2024-01-15T00:35:18;-2.30;99.90
680;DHT22;322;48.846;9.230;2024-01-15T00:37:46;-2.40;99.90
680;DHT22;322;48.846;9.230;2024-01-15T00:40:15;-2.50;99.90
680;DHT22;322;48.846;9.230;2024-01-15T00:42:43;-2.50;99.90
680;DHT22;322;48.846;9.230;2024-01-15T00:45:11;-2.60;99.90
680;DHT22;322;48.846;9.230;2024-01-15T00:47:39;-2.60;99.90
680;DHT22;322;48.846;9.230;2024-01-15T00:50:08;-2.80;99.90
680;DHT22;322;48.846;9.230;2024-01-15T00:52:36;-3.00;99.90
680;DHT22;322;48.846;9.230;2024-01-15T00:55:05;-3.00;99.90
680;DHT22;322;48.846;9.230;2024-01-15T00:57:34;-3.00;99.90
680;DHT22;322;48.846;9.230;2024-01-15T01:00:03;-3.10;99.90
680;DHT22;322;48.846;9.230;2024-01-15T01:02:32;-3.10;99.90
680;DHT22;322;48.846;9.230;2024-01-15T01:05:00;-3.00;99.90
680;DHT22;322;48.846;9.230;2024-01-15T01:07:30;-2.90;99.90
680;DHT22;322;48.846;9.230;2024-01-15T01:09:58;-2.80;99.90
680;DHT22;322;48.846;9.230;2024-01-15T01:12:26;-2.60;99.90
680;DHT22;322;48.846;9.230;2024-01-15T01:14:55;-2.60;99.90
680;DHT22;322;48.846;9.230;2024-01-15T01:17:23;-2.40;99.90
680;DHT22;322;48.846;9.230;2024-01-15T01:19:52;-2.30;99.90
680;DHT22;322;48.846;9.230;2024-01-15T01:22:20;-2.30;99.90
680;DHT22;322;48.846;9.230;2024-01-15T01:24:48;-2.20;99.90
680;DHT22;322;48.846;9.230;2024-01-15T01:27:16;-2.20;99.90
680;DHT22;322;48.846;9.230;2024-01-15T01:29:43;-2.00;99.90
680;DHT22;322;48.846;9.230;2024-01-15T01:32:13;-2.00;99.90
680;DHT22;322;48.846;9.230;2024-01-15T01:34:41;-1.80;99.90
680;DHT22;322;48.846;9.230;2024-01-15T01:37:10;-1.70;99.90
680;DHT22;322;48.846;9.230;2024-01-15T01:39:40;-1.60;99.90
680;DHT22;322;48.846;9.230;2024-01-15T01:42:08;-1.70;99.90
680;DHT22;322;48.846;9.230;2024-01-15T01:44:36;-1.60;99.90
680;DHT22;322;48.846;9.230;2024-01-15T01:47:05;-1.50;99.90
680;DHT22;322;48.846;9.230;2024-01-15T01:49:34;-1.50;99.90
680;DHT22;322;48.846;9.230;2024-01-15T01:52:05;-1.30;99.90
680;DHT22;322;48.846;9.230;2024-01-15T01:54:35;-1.20;99.90
680;DHT22;322;48.846;9.230;2024-01-15T01:57:05;-1.10;99.90
680;DHT22;322;48.846;9.230;2024-01-15T01:59:34;-1.10;99.90
680;DHT22;322;48.846;9.230;2024-01-15T02:02:04;-1.00;99.90
680;DHT22;322;48.846;9.230;2024-01-15T02:04:34;-1.00;99.90
680;DHT22;322;48.846;9.230;2024-01-15T02:07:03;-0.90;99.90
680;DHT22;322;48.846;9.230;2024-01-15T02:09:32;-0.90;99.90
680;DHT22;322;48.846;9.230;2024-01-15T02:12:00;-0.90;99.90
680;DHT22;322;48.846;9.230;2024-01-15T02:14:28;-0.80;99.90
680;DHT22;322;48.846;9.230;2024-01-15T02:16:56;-0.80;99.90
680;DHT22;322;48.846;9.230;2024-01-15T02:19:24;-0.80;99.90
680;DHT22;322;48.846;9.230;2024-01-15T02:21:54;-0.80;99.90
680;DHT22;322;48.846;9.230;2024-01-15T02:24:23;-0.70;99.90
680;DHT22;322;48.846;9.230;2024-01-15T02:26:51;-0.70;99.90
680;DHT22;322;48.846;9.230;2024-01-15T02:29:19;-0.70;99.90
680;DHT22;322;48.846;9.230;2024-01-15T02:31:47;-0.80;99.90
680;DHT22;322;48.846;9.230;2024-01-15T02:34:15;-0.80;99.90
680;DHT22;322;48.846;9.230;2024-01-15T02:36:44;-0.80;99.90
680;DHT22;322;48.846;9.230;2024-01-15T02:39:12;-0.80;99.90
680;DHT22;322;48.846;9.230;2024-01-15T02:41:41;-0.80;99.90
680;DHT22;322;48.846;9.230;2024-01-15T02:44:09;-0.80;99.90
680;DHT22;322;48.846;9.230;2024-01-15T02:46:37;-0.80;99.90
680;DHT22;322;48.846;9.230;2024-01-15T02:49:05;-0.90;99.90
680;DHT22;322;48.846;9.230;2024-01-15T02:51:33;-0.90;99.90
680;DHT22;322;48.846;9.230;2024-01-15T02:54:01;-1.00;99.90
680;DHT22;322;48.846;9.230;2024-01-15T02:56:29;-1.10;99.90
680;DHT22;322;48.846;9.230;2024-01-15T02:58:59;-1.10;99.90
680;DHT22;322;48.846;9.230;2024-01-15T03:01:27;-1.20;99.90
680;DHT22;322;48.846;9.230;2024-01-15T03:03:55;-1.20;99.90
680;DHT22;322;48.846;9.230;2024-01-15T03:06:24;-1.20;99.90
680;DHT22;322;48.846;9.230;2024-01-15T03:08:52;-1.30;99.90
680;DHT22;322;48.846;9.230;2024-01-15T03:11:20;-1.30;99.90
680;DHT22;322;48.846;9.230;2024-01-15T03:13:48;-1.30;99.90
680;DHT22;322;48.846;9.230;2024-01-15T03:16:17;-1.20;99.90
680;DHT22;322;48.846;9.230;2024-01-15T03:18:46;-1.20;99.90
680;DHT22;322;48.846;9.230;2024-01-15T03:21:14;-1.20;99.90
680;DHT22;322;48.846;9.230;2024-01-15T03:23:42;-1.20;99.90
680;DHT22;322;48.846;9.230;2024-01-15T03:26:10;-1.20;99.90
680;DHT22;322;48.846;9.230;2024-01-15T03:28:38;-1.10;99.90
680;DHT22;322;48.846;9.230;2024-01-15T03:31:07;-1.10;99.90
680;DHT22;322;48.846;9.230;2024-01-15T03:33:37;-1.10;99.90
680;DHT22;322;48.846;9.230;2024-01-15T03:36:05;-1.10;99.90
680;DHT22;322;48.846;9.230;2024-01-15T03:38:34;-1.10;99.90
680;DHT22;322;48.846;9.230;2024-01-15T03:41:02;-1.10;99.90
680;DHT22;322;48.846;9.230;2024-01-15T03:43:30;-1.20;99.90
680;DHT22;322;48.846;9.230;2024-01-15T03:45:57;-1.20;99.90
680;DHT22;322;48.846;9.230;2024-01-15T03:48:25;-1.20;99.90
680;DHT22;322;48.846;9.230;2024-01-15T03:50:55;-1.20;99.90
680;DHT22;322;48.846;9.230;2024-01-15T03:53:23;-1.10;99.90
680;DHT22;322;48.846;9.230;2024-01-15T03:55:51;-1.10;99.90
680;DHT22;322;48.846;9.230;2024-01-15T03:58:19;-1.10;99.90
680;DHT22;322;48.846;9.230;2024-01-15T04:00:47;-1.20;99.90
680;DHT22;322;48.846;9.230;2024-01-15T04:03:15;-1.00;99.90
680;DHT22;322;48.846;9.230;2024-01-15T04:05:44;-0.90;99.90
680;DHT22;322;48.846;9.230;2024-01-15T04:08:13;-0.90;99.90
680;DHT22;322;48.846;9.230;2024-01-15T04:10:41;-0.80;99.90
680;DHT22;322;48.846;9.230;2024-01-15T04:13:09;-0.70;99.90
680;DHT22;322;48.846;9.230;2024-01-15T04:15:37;-0.70;99.90
680;DHT22;322;48.846;9.230;2024-01-15T04:18:05;-0.60;99.90
680;DHT22;322;48.846;9.230;2024-01-15T04:20:33;-0.50;99.90
680;DHT22;322;48.846;9.230;2024-01-15T04:23:01;-0.50;99.90
680;DHT22;322;48.846;9.230;2024-01-15T04:25:30;-0.40;99.90
680;DHT22;322;48.846;9.230;2024-01-15T04:27:58;-0.30;99.90
680;DHT22;322;48.846;9.230;2024-01-15T04:30:26;-0.20;99.90
680;DHT22;322;48.846;9.230;2024-01-15T04:32:55;-0.20;99.90
680;DHT22;322;48.846;9.230;2024-01-15T04:35:23;-0.10;99.90
680;DHT22;322;48.846;9.230;2024-01-15T04:37:51;-0.10;99.90
680;DHT22;322;48.846;9.230;2024-01-15T04:40:19;-0.10;99.90
680;DHT22;322;48.846;9.230;2024-01-15T04:42:48;-0.10;99.90
680;DHT22;322;48.846;9.230;2024-01-15T04:45:16;0.00;99.90
680;DHT22;322;48.846;9.230;2024-01-15T04:47:45;0.00;99.90
680;DHT22;322;48.846;9.230;2024-01-15T04:50:13;0.00;99.90
680;DHT22;322;48.846;9.230;2024-01-15T04:52:41;0.10;99.90
680;DHT22;322;48.846;9.230;2024-01-15T04:55:09;0.10;99.90
680;DHT22;322;48.846;9.230;2024-01-15T04:57:37;0.10;99.90
680;DHT22;322;48.846;9.230;2024-01-15T05:00:08;0.10;99.90
680;DHT22;322;48.846;9.230;2024-01-15T05:02:36;0.10;99.90
680;DHT22;322;48.846;9.230;2024-01-15T05:05:04;0.10;99.90
680;DHT22;322;48.846;9.230;2024-01-15T05:07:32;0.20;99.90
680;DHT22;322;48.846;9.230;2024-01-15T05:10:00;0.20;99.90
680;DHT22;322;48.846;9.230;2024-01-15T05:12:29;0.30;99.90
680;DHT22;322;48.846;9.230;2024-01-15T05:14:57;0.30;99.90
680;DHT22;322;48.846;9.230;2024-01-15T05:17:26;0.30;99.90
680;DHT22;322;48.846;9.230;2024-01-15T05:19:54;0.40;99.90
680;DHT22;322;48.846;9.230;2024-01-15T05:22:22;0.40;99.90
680;DHT22;322;48.846;9.230;2024-01-15T05:24:51;0.50;99.90
680;DHT22;322;48.846;9.230;2024-01-15T05:27:19;0.50;99.90
680;DHT22;322;48.846;9.230;2024-01-15T05:29:47;0.50;99.90
680;DHT22;322;48.846;9.230;2024-01-15T05:32:15;0.50;99.90
680;DHT22;322;48.846;9.230;2024-01-15T05:34:45;0.50;99.90
680;DHT22;322;48.846;9.230;2024-01-15T05:37:13;0.50;99.90
680;DHT22;322;48.846;9.230;2024-01-15T05:39:41;0.50;99.90
680;DHT22;322;48.846;9.230;2024-01-15T05:42:09;0.50;99.90
680;DHT22;322;48.846;9.230;2024-01-15T05:44:37;0.60;99.90
680;DHT22;322;48.846;9.230;2024-01-15T05:47:05;0.60;99.90
680;DHT22;322;48.846;9.230;2024-01-15T05:49:33;0.60;99.90
680;DHT22;322;48.846;9.230;2024-01-15T05:52:03;0.60;99.90
680;DHT22;322;48.846;9.230;2024-01-15T05:54:31;0.70;99.90
680;DHT22;322;48.846;9.230;2024-01-15T05:56:59;0.60;99.90
680;DHT22;322;48.846;9.230;2024-01-15T05:59:27;0.60;99.90
680;DHT22;322;48.846;9.230;2024-01-15T06:01:58;0.60;99.90
680;DHT22;322;48.846;9.230;2024-01-15T06:04:26;0.70;99.90
680;DHT22;322;48.846;9.230;2024-01-15T06:06:54;0.60;99.90
680;DHT22;322;48.846;9.230;2024-01-15T06:09:24;0.70;99.90
680;DHT22;322;48.846;9.230;2024-01-15T06:11:52;0.70;99.90
680;DHT22;322;48.846;9.230;2024-01-15T06:14:19;0.70;99.90
680;DHT22;322;48.846;9.230;2024-01-15T06:16:47;0.70;99.90
680;DHT22;322;48.846;9.230;2024-01-15T06:19:16;0.70;99.90
680;DHT22;322;48.846;9.230;2024-01-15T06:21:44;0.70;99.90
680;DHT22;322;48.846;9.230;2024-01-15T06:24:12;0.70;99.90
680;DHT22;322;48.846;9.230;2024-01-15T06:26:42;0.70;99.90
680;DHT22;322;48.846;9.230;2024-01-15T06:29:09;0.70;99.90
680;DHT22;322;48.846;9.230;2024-01-15T06:31:37;0.70;99.90
680;DHT22;322;48.846;9.230;2024-01-15T06:34:06;0.70;99.90
680;DHT22;322;48.846;9.230;2024-01-15T06:36:34;0.60;99.90
680;DHT22;322;48.846;9.230;2024-01-15T06:39:02;0.70;99.90
680;DHT22;322;48.846;9.230;2024-01-15T06:41:30;0.60;99.90
680;DHT22;322;48.846;9.230;2024-01-15T06:43:59;0.70;99.90
680;DHT22;322;48.846;9.230;2024-01-15T06:46:27;0.60;99.90
680;DHT22;322;48.846;9.230;2024-01-15T06:48:55;0.60;99.90
680;DHT22;322;48.846;9.230;2024-01-15T06:51:23;0.60;99.90
680;DHT22;322;48.846;9.230;2024-01-15T06:53:52;0.60;99.90
680;DHT22;322;48.846;9.230;2024-01-15T06:56:20;0.60;99.90
680;DHT22;322;48.846;9.230;2024-01-15T06:58:48;0.70;99.90
680;DHT22;322;48.846;9.230;2024-01-15T07:01:17;0.70;99.90
680;DHT22;322;48.846;9.230;2024-01-15T07:03:45;0.70;99.90
680;DHT22;322;48.846;9.230;2024-01-15T07:06:14;0.70;99.90
680;DHT22;322;48.846;9.230;2024-01-15T07:08:42;0.70;99.90
680;DHT22;322;48.846;9.230;2024-01-15T07:11:10;0.70;99.90
680;DHT22;322;48.846;9.230;2024-01-15T07:13:38;0.70;99.90
680;DHT22;322;48.846;9.230;2024-01-15T07:16:06;0.70;99.90
680;DHT22;322;48.846;9.230;2024-01-15T07:18:35;0.70;99.90
680;DHT22;322;48.846;9.230;2024-01-15T07:21:04;0.70;99.90
680;DHT22;322;48.846;9.230;2024-01-15T07:23:32;0.70;99.90
680;DHT22;322;48.846;9.230;2024-01-15T07:26:00;0.70;99.90
680;DHT22;322;48.846;9.230;2024-01-15T07:28:29;0.80;99.90
680;DHT22;322;48.846;9.230;2024-01-15T07:30:57;0.80;99.90
680;DHT22;322;48.846;9.230;2024-01-15T07:33:26;0.70;99.90
680;DHT22;322;48.846;9.230;2024-01-15T07:35:55;0.70;99.90
680;DHT22;322;48.846;9.230;2024-01-15T07:38:27;0.70;99.90
680;DHT22;322;48.846;9.230;2024-01-15T07:40:55;0.80;99.90
680;DHT22;322;48.846;9.230;2024-01-15T07:43:23;0.80;99.90
680;DHT22;322;48.846;9.230;2024-01-15T07:45:51;0.80;99.90
680;DHT22;322;48.846;9.230;2024-01-15T07:48:19;0.80;99.90
680;DHT22;322;48.846;9.230;2024-01-15T07:50:48;0.90;99.90
680;DHT22;322;48.846;9.230;2024-01-15T07:53:17;0.80;99.90
680;DHT22;322;48.846;9.230;2024-01-15T07:55:46;0.90;99.90
680;DHT22;322;48.846;9.230;2024-01-15T07:58:14;0.90;99.90
680;DHT22;322;48.846;9.230;2024-01-15T08:00:43;1.00;99.90
680;DHT22;322;48.846;9.230;2024-01-15T08:03:12;0.90;99.90
680;DHT22;322;48.846;9.230;2024-01-15T08:05:40;1.00;99.90
680;DHT22;322;48.846;9.230;2024-01-15T08:08:08;1.00;99.90
680;DHT22;322;48.846;9.230;2024-01-15T08:10:38;1.10;99.90
680;DHT22;322;48.846;9.230;2024-01-15T08:13:06;1.10;99.90
680;DHT22;322;48.846;9.230;2024-01-15T08:15:36;1.00;99.90
680;DHT22;322;48.846;9.230;2024-01-15T08:18:04;1.10;99.90
680;DHT22;322;48.846;9.230;2024-01-15T08:20:32;1.10;99.90
680;DHT22;322;48.846;9.230;2024-01-15T08:23:00;1.20;99.90
680;DHT22;322;48.846;9.230;2024-01-15T08:25:28;1.20;99.90
680;DHT22;322;48.846;9.230;2024-01-15T08:27:57;1.20;99.90
680;DHT22;322;48.846;9.230;2024-01-15T08:30:25;1.30;99.90
680;DHT22;322;48.846;9.230;2024-01-15T08:32:55;1.30;99.90
680;DHT22;322;48.846;9.230;2024-01-15T08:35:33;1.30;99.90
680;DHT22;322;48.846;9.230;2024-01-15T08:38:01;1.30;99.90
680;DHT22;322;48.846;9.230;2024-01-15T08:40:29;1.40;99.90
680;DHT22;322;48.846;9.230;2024-01-15T08:42:59;1.40;99.90
680;DHT22;322;48.846;9.230;2024-01-15T08:45:28;1.40;99.90
680;DHT22;322;48.846;9.230;2024-01-15T08:47:58;1.50;99.90
680;DHT22;322;48.846;9.230;2024-01-15T08:50:26;1.50;99.90
680;DHT22;322;48.846;9.230;2024-01-15T08:52:54;1.50;99.90
680;DHT22;322;48.846;9.230;2024-01-15T08:55:22;1.60;99.90
680;DHT22;322;48.846;9.230;2024-01-15T08:57:50;1.60;99.70
680;DHT22;322;48.846;9.230;2024-01-15T09:00:20;1.70;99.50
680;DHT22;322;48.846;9.230;2024-01-15T09:02:48;1.70;99.40
680;DHT22;322;48.846;9.230;2024-01-15T09:05:16;1.80;98.90
680;DHT22;322;48.846;9.230;2024-01-15T09:07:44;1.80;98.70
680;DHT22;322;48.846;9.230;2024-01-15T09:10:13;1.90;98.70
680;DHT22;322;48.846;9.230;2024-01-15T09:12:41;1.80;98.30
680;DHT22;322;48.846;9.230;2024-01-15T09:15:09;1.90;98.30
680;DHT22;322;48.846;9.230;2024-01-15T09:17:39;1.90;98.20
680;DHT22;322;48.846;9.230;2024-01-15T09:20:08;2.00;98.10
680;DHT22;322;48.846;9.230;2024-01-15T09:22:38;2.00;97.60
680;DHT22;322;48.846;9.230;2024-01-15T09:25:07;2.00;97.20
680;DHT22;322;48.846;9.230;2024-01-15T09:27:36;2.10;97.20
680;DHT22;322;48.846;9.230;2024-01-15T09:30:06;2.10;97.10
680;DHT22;322;48.846;9.230;2024-01-15T09:32:35;2.20;97.10
680;DHT22;322;48.846;9.230;2024-01-15T09:35:05;2.20;97.00
680;DHT22;322;48.846;9.230;2024-01-15T09:37:34;2.20;96.90
680;DHT22;322;48.846;9.230;2024-01-15T09:40:14;2.20;96.60
680;DHT22;322;48.846;9.230;2024-01-15T09:42:43;2.10;96.50
680;DHT22;322;48.846;9.230;2024-01-15T09:45:13;2.20;96.80
680;DHT22;322;48.846;9.230;2024-01-15T09:47:42;2.30;96.50
680;DHT22;322;48.846;9.230;2024-01-15T09:50:14;2.40;96.50
680;DHT22;322;48.846;9.230;2024-01-15T09:52:43;2.40;96.40
680;DHT22;322;48.846;9.230;2024-01-15T09:55:13;2.40;96.30
680;DHT22;322;48.846;9.230;2024-01-15T09:57:44;2.50;96.10
680;DHT22;322;48.846;9.230;2024-01-15T10:00:13;2.50;95.80
680;DHT22;322;48.846;9.230;2024-01-15T10:02:42;2.50;95.80
680;DHT22;322;48.846;9.230;2024-01-15T10:05:10;2.50;95.80
680;DHT22;322;48.846;9.230;2024-01-15T10:07:40;2.50;95.50
680;DHT22;322;48.846;9.230;2024-01-15T10:10:10;2.60;95.70
680;DHT22;322;48.846;9.230;2024-01-15T10:12:39;2.50;95.30
680;DHT22;322;48.846;9.230;2024-01-15T10:15:09;2.60;95.50
680;DHT22;322;48.846;9.230;2024-01-15T10:17:38;2.70;95.30
680;DHT22;322;48.846;9.230;2024-01-15T10:20:09;2.70;95.30
680;DHT22;322;48.846;9.230;2024-01-15T10:22:41;2.70;95.60
680;DHT22;322;48.846;9.230;2024-01-15T10:25:13;2.80;95.20
680;DHT22;322;48.846;9.230;2024-01-15T10:27:41;2.80;94.70
680;DHT22;322;48.846;9.230;2024-01-15T10:30:10;2.60;94.60
680;DHT22;322;48.846;9.230;2024-01-15T10:32:41;2.60;95.10
680;DHT22;322;48.846;9.230;2024-01-15T10:35:09;2.50;95.00
680;DHT22;322;48.846;9.230;2024-01-15T10:37:37;2.50;95.40
680;DHT22;322;48.846;9.230;2024-01-15T10:40:07;2.60;95.30
680;DHT22;322;48.846;9.230;2024-01-15T10:42:36;2.50;95.20
680;DHT22;322;48.846;9.230;2024-01-15T10:45:05;2.50;95.10
680;DHT22;322;48.846;9.230;2024-01-15T10:47:35;2.40;95.20
680;DHT22;322;48.846;9.230;2024-01-15T10:50:05;2.50;95.30
680;DHT22;322;48.846;9.230;2024-01-15T10:52:34;2.50;95.50
680;DHT22;322;48.846;9.230;2024-01-15T10:55:03;2.40;95.40
680;DHT22;322;48.846;9.230;2024-01-15T10:57:39;2.40;95.50
680;DHT22;322;48.846;9.230;2024-01-15T11:00:08;2.40;95.90
680;DHT22;322;48.846;9.230;2024-01-15T11:02:41;2.50;95.90
680;DHT22;322;48.846;9.230;2024-01-15T11:05:11;2.40;96.10
680;DHT22;322;48.846;9.230;2024-01-15T11:07:40;2.40;97.00
680;DHT22;322;48.846;9.230;2024-01-15T11:10:40;2.30;97.30
680;DHT22;322;48.846;9.230;2024-01-15T11:13:10;2.30;97.50
680;DHT22;322;48.846;9.230;2024-01-15T11:16:01;2.30;98.20
680;DHT22;322;48.846;9.230;2024-01-15T11:18:31;2.40;97.90
680;DHT22;322;48.846;9.230;2024-01-15T11:21:23;2.30;98.20
680;DHT22;322;48.846;9.230;2024-01-15T11:23:54;2.10;99.90
680;DHT22;322;48.846;9.230;2024-01-15T11:26:30;2.00;99.90
680;DHT22;322;48.846;9.230;2024-01-15T11:28:59;2.00;99.90
680;DHT22;322;48.846;9.230;2024-01-15T11:31:28;1.80;99.90
680;DHT22;322;48.846;9.230;2024-01-15T11:33:56;1.70;99.90
680;DHT22;322;48.846;9.230;2024-01-15T11:37:01;1.70;99.90
680;DHT22;322;48.846;9.230;2024-01-15T11:39:41;1.70;99.90
680;DHT22;322;48.846;9.230;2024-01-15T11:42:15;1.80;99.90
680;DHT22;322;48.846;9.230;2024-01-15T11:44:43;1.90;99.90
680;DHT22;322;48.846;9.230;2024-01-15T11:47:12;1.90;99.90
680;DHT22;322;48.846;9.230;2024-01-15T11:50:06;1.90;99.90
680;DHT22;322;48.846;9.230;2024-01-15T11:52:36;1.90;99.90
680;DHT22;322;48.846;9.230;2024-01-15T11:55:11;1.80;99.90
680;DHT22;322;48.846;9.230;2024-01-15T11:57:45;1.80;99.90
680;DHT22;322;48.846;9.230;2024-01-15T12:00:14;1.70;99.90
680;DHT22;322;48.846;9.230;2024-01-15T12:02:43;1.70;99.90
680;DHT22;322;48.846;9.230;2024-01-15T12:05:13;1.70;99.90
680;DHT22;322;48.846;9.230;2024-01-15T12:07:42;1.70;99.90
680;DHT22;322;48.846;9.230;2024-01-15T12:10:11;1.60;99.90
680;DHT22;322;48.846;9.230;2024-01-15T12:12:59;1.50;99.90
680;DHT22;322;48.846;9.230;2024-01-15T12:15:28;1.40;99.90
680;DHT22;322;48.846;9.230;2024-01-15T12:17:57;1.40;99.90
680;DHT22;322;48.846;9.230;2024-01-15T12:20:26;1.40;99.90
680;DHT22;322;48.846;9.230;2024-01-15T12:22:55;1.40;99.90
680;DHT22;322;48.846;9.230;2024-01-15T12:25:30;1.30;99.90
680;DHT22;322;48.846;9.230;2024-01-15T12:28:01;1.30;99.90
680;DHT22;322;48.846;9.230;2024-01-15T12:30:29;1.30;99.90
680;DHT22;322;48.846;9.230;2024-01-15T12:33:00;1.40;99.90
680;DHT22;322;48.846;9.230;2024-01-15T12:35:29;1.40;99.90
680;DHT22;322;48.846;9.230;2024-01-15T12:37:59;1.20;99.90
680;DHT22;322;48.846;9.230;2024-01-15T12:40:27;1.00;99.90
680;DHT22;322;48.846;9.230;2024-01-15T12:42:55;0.90;99.90
680;DHT22;322;48.846;9.230;2024-01-15T12:45:24;0.90;99.90
680;DHT22;322;48.846;9.230;2024-01-15T12:47:53;0.90;99.90
680;DHT22;322;48.846;9.230;2024-01-15T12:50:24;0.90;99.90
680;DHT22;322;48.846;9.230;2024-01-15T12:52:52;1.00;99.90
680;DHT22;322;48.846;9.230;2024-01-15T12:55:20;1.00;99.90
680;DHT22;322;48.846;9.230;2024-01-15T12:57:49;1.00;99.90
680;DHT22;322;48.846;9.230;2024-01-15T13:00:19;1.10;99.90
680;DHT22;322;48.846;9.230;2024-01-15T13:02:49;1.10;99.90
680;DHT22;322;48.846;9.230;2024-01-15T13:05:17;1.10;99.90
680;DHT22;322;48.846;9.230;2024-01-15T13:07:47;1.10;99.90
680;DHT22;322;48.846;9.230;2024-01-15T13:10:15;1.10;99.90
680;DHT22;322;48.846;9.230;2024-01-15T13:12:43;1.10;99.90
680;DHT22;322;48.846;9.230;2024-01-15T13:15:11;1.10;99.90
680;DHT22;322;48.846;9.230;2024-01-15T13:17:41;1.10;99.90
680;DHT22;322;48.846;9.230;2024-01-15T13:20:12;1.10;99.90
680;DHT22;322;48.846;9.230;2024-01-15T13:22:40;1.10;99.90
680;DHT22;322;48.846;9.230;2024-01-15T13:25:11;1.10;99.90
680;DHT22;322;48.846;9.230;2024-01-15T13:27:39;1.10;99.90
680;DHT22;322;48.846;9.230;2024-01-15T13:30:10;1.10;99.90
680;DHT22;322;48.846;9.230;2024-01-15T13:32:39;1.10;99.90
680;DHT22;322;48.846;9.230;2024-01-15T13:35:08;1.10;99.90
680;DHT22;322;48.846;9.230;2024-01-15T13:37:41;1.10;99.90
680;DHT22;322;48.846;9.230;2024-01-15T13:40:10;1.10;99.90
680;DHT22;322;48.846;9.230;2024-01-15T13:42:44;1.10;99.90
680;DHT22;322;48.846;9.230;2024-01-15T13:45:13;1.00;99.90
680;DHT22;322;48.846;9.230;2024-01-15T13:47:42;1.10;99.90
680;DHT22;322;48.846;9.230;2024-01-15T13:50:10;1.10;99.90
680;DHT22;322;48.846;9.230;2024-01-15T13:52:38;1.10;99.90
680;DHT22;322;48.846;9.230;2024-01-15T13:55:08;1.00;99.90
680;DHT22;322;48.846;9.230;2024-01-15T13:57:37;1.00;99.90
680;DHT22;322;48.846;9.230;2024-01-15T14:00:06;1.00;99.90
680;DHT22;322;48.846;9.230;2024-01-15T14:02:39;1.00;99.90
680;DHT22;322;48.846;9.230;2024-01-15T14:05:07;1.10;99.90
680;DHT22;322;48.846;9.230;2024-01-15T14:07:35;1.10;99.90
680;DHT22;322;48.846;9.230;2024-01-15T14:10:03;1.20;99.90
680;DHT22;322;48.846;9.230;2024-01-15T14:12:33;1.20;99.90
680;DHT22;322;48.846;9.230;2024-01-15T14:15:02;1.20;99.90
680;DHT22;322;48.846;9.230;2024-01-15T14:17:32;1.20;99.90
680;DHT22;322;48.846;9.230;2024-01-15T14:20:00;1.20;99.90
680;DHT22;322;48.846;9.230;2024-01-15T14:22:29;1.20;99.90
680;DHT22;322;48.846;9.230;2024-01-15T14:24:57;1.20;99.90
680;DHT22;322;48.846;9.230;2024-01-15T14:27:26;1.20;99.90
680;DHT22;322;48.846;9.230;2024-01-15T14:29:55;1.20;99.90
680;DHT22;322;48.846;9.230;2024-01-15T14:32:23;1.10;99.90
680;DHT22;322;48.846;9.230;2024-01-15T14:34:51;1.10;99.90
680;DHT22;322;48.846;9.230;2024-01-15T14:37:19;1.00;99.90
680;DHT22;322;48.846;9.230;2024-01-15T14:39:48;0.90;99.90
680;DHT22;322;48.846;9.230;2024-01-15T14:42:16;0.90;99.90
680;DHT22;322;48.846;9.230;2024-01-15T14:44:44;0.90;99.90
680;DHT22;322;48.846;9.230;2024-01-15T14:47:13;0.90;99.90
680;DHT22;322;48.846;9.230;2024-01-15T14:49:41;0.90;99.90
680;DHT22;322;48.846;9.230;2024-01-15T14:52:09;0.90;99.90
680;DHT22;322;48.846;9.230;2024-01-15T14:54:37;0.80;99.90
680;DHT22;322;48.846;9.230;2024-01-15T14:57:06;0.80;99.90
680;DHT22;322;48.846;9.230;2024-01-15T14:59:34;0.70;99.90
680;DHT22;322;48.846;9.230;2024-01-15T15:02:02;0.50;99.90
680;DHT22;322;48.846;9.230;2024-01-15T15:04:31;0.50;99.90
680;DHT22;322;48.846;9.230;2024-01-15T15:06:59;0.50;99.90
680;DHT22;322;48.846;9.230;2024-01-15T15:09:27;0.50;99.90
680;DHT22;322;48.846;9.230;2024-01-15T15:11:55;0.50;99.90
680;DHT22;322;48.846;9.230;2024-01-15T15:14:23;0.50;99.90
680;DHT22;322;48.846;9.230;2024-01-15T15:16:54;0.60;99.90
680;DHT22;322;48.846;9.230;2024-01-15T15:19:22;0.60;99.90
680;DHT22;322;48.846;9.230;2024-01-15T15:21:51;0.60;99.90
680;DHT22;322;48.846;9.230;2024-01-15T15:24:19;0.60;99.90
680;DHT22;322;48.846;9.230;2024-01-15T15:26:47;0.60;99.90
680;DHT22;322;48.846;9.230;2024-01-15T15:29:15;0.60;99.90
680;DHT22;322;48.846;9.230;2024-01-15T15:31:45;0.70;99.90
680;DHT22;322;48.846;9.230;2024-01-15T15:34:15;0.70;99.90
680;DHT22;322;48.846;9.230;2024-01-15T15:36:43;0.70;99.90
680;DHT22;322;48.846;9.230;2024-01-15T15:39:12;0.70;99.90
680;DHT22;322;48.846;9.230;2024-01-15T15:41:43;0.70;99.90
680;DHT22;322;48.846;9.230;2024-01-15T15:44:11;0.80;99.90
680;DHT22;322;48.846;9.230;2024-01-15T15:46:43;0.80;99.90
680;DHT22;322;48.846;9.230;2024-01-15T15:49:11;0.70;99.90
680;DHT22;322;48.846;9.230;2024-01-15T15:51:40;0.70;99.90
680;DHT22;322;48.846;9.230;2024-01-15T15:54:08;0.80;99.90
680;DHT22;322;48.846;9.230;2024-01-15T15:56:38;0.70;99.90
680;DHT22;322;48.846;9.230;2024-01-15T15:59:06;0.70;99.90
680;DHT22;322;48.846;9.230;2024-01-15T16:01:36;0.70;99.90
680;DHT22;322;48.846;9.230;2024-01-15T16:04:04;0.70;99.90
680;DHT22;322;48.846;9.230;2024-01-15T16:06:32;0.70;99.90
680;DHT22;322;48.846;9.230;2024-01-15T16:09:00;0.70;99.90
680;DHT22;322;48.846;9.230;2024-01-15T16:11:28;0.60;99.90
680;DHT22;322;48.846;9.230;2024-01-15T16:13:58;0.60;99.90
680;DHT22;322;48.846;9.230;2024-01-15T16:16:30;0.60;99.90
680;DHT22;322;48.846;9.230;2024-01-15T16:19:17;0.50;99.90
680;DHT22;322;48.846;9.230;2024-01-15T16:22:06;0.40;99.90
680;DHT22;322;48.846;9.230;2024-01-15T16:24:55;0.50;99.90
680;DHT22;322;48.846;9.230;2024-01-15T16:27:28;0.50;99.90
680;DHT22;322;48.846;9.230;2024-01-15T16:29:58;0.40;99.90
680;DHT22;322;48.846;9.230;2024-01-15T16:32:26;0.40;99.90
680;DHT22;322;48.846;9.230;2024-01-15T16:34:54;0.40;99.90
680;DHT22;322;48.846;9.230;2024-01-15T16:37:23;0.30;99.90
680;DHT22;322;48.846;9.230;2024-01-15T16:39:50;0.20;99.90
680;DHT22;322;48.846;9.230;2024-01-15T16:42:18;0.10;99.90
680;DHT22;322;48.846;9.230;2024-01-15T16:44:46;0.10;99.90
680;DHT22;322;48.846;9.230;2024-01-15T16:47:16;0.00;99.90
680;DHT22;322;48.846;9.230;2024-01-15T16:49:44;0.00;99.90
680;DHT22;322;48.846;9.230;2024-01-15T16:52:12;0.00;99.90
680;DHT22;322;48.846;9.230;2024-01-15T16:54:40;0.00;99.90
680;DHT22;322;48.846;9.230;2024-01-15T16:57:08;0.00;99.90
680;DHT22;322;48.846;9.230;2024-01-15T16:59:35;0.00;99.90